sensor_id;sensor_type;location;lat;lon;timestamp;P1;durP1;ratioP1;P2;durP2;ratioP2
10110;SDS011;5095;49.796;9.934;2023-05-07T00:01:59;5.13;;;3.20;;
10110;SDS011;5095;49.796;9.934;2023-05-07T00:04:25;5.40;;;3.00;;
10110;SDS011;5095;49.796;9.934;2023-05-07T00:06:51;6.53;;;4.20;;
10110;SDS011;5095;49.796;9.934;2023-05-07T00:09:17;5.03;;;3.03;;
10110;SDS011;5095;49.796;9.934;2023-05-07T00:11:43;3.97;;;2.97;;
10110;SDS011;5095;49.796;9.934;2023-05-07T00:14:09;7.83;;;6.13;;
10110;SDS011;5095;49.796;9.934;2023-05-07T00:16:35;7.60;;;3.57;;
10110;SDS011;5095;49.796;9.934;2023-05-07T00:19:01;4.20;;;3.00;;
10110;SDS011;5095;49.796;9.934;2023-05-07T00:21:27;4.53;;;3.13;;
10110;SDS011;5095;49.796;9.934;2023-05-07T00:23:53;3.50;;;2.83;;
10110;SDS011;5095;49.796;9.934;2023-05-07T00:26:19;3.37;;;2.37;;
10110;SDS011;5095;49.796;9.934;2023-05-07T00:28:45;6.10;;;4.50;;
10110;SDS011;5095;49.796;9.934;2023-05-07T00:31:11;3.73;;;2.60;;
10110;SDS011;5095;49.796;9.934;2023-05-07T00:33:38;4.83;;;2.70;;
10110;SDS011;5095;49.796;9.934;2023-05-07T00:36:04;6.60;;;2.50;;
10110;SDS011;5095;49.796;9.934;2023-05-07T00:38:30;4.43;;;2.67;;
10110;SDS011;5095;49.796;9.934;2023-05-07T00:40:56;3.53;;;2.10;;
10110;SDS011;5095;49.796;9.934;2023-05-07T00:43:22;4.30;;;2.70;;
10110;SDS011;5095;49.796;9.934;2023-05-07T00:45:48;3.50;;;2.27;;
10110;SDS011;5095;49.796;9.934;2023-05-07T00:48:15;4.63;;;2.30;;
10110;SDS011;5095;49.796;9.934;2023-05-07T00:50:41;4.00;;;2.40;;
10110;SDS011;5095;49.796;9.934;2023-05-07T00:53:07;3.47;;;2.30;;
10110;SDS011;5095;49.796;9.934;2023-05-07T00:55:34;3.27;;;2.23;;
10110;SDS011;5095;49.796;9.934;2023-05-07T00:58:01;3.50;;;2.10;;
10110;SDS011;5095;49.796;9.934;2023-05-07T01:00:27;3.63;;;2.23;;
10110;SDS011;5095;49.796;9.934;2023-05-07T01:02:53;3.47;;;2.30;;
10110;SDS011;5095;49.796;9.934;2023-05-07T01:05:20;3.70;;;2.40;;
10110;SDS011;5095;49.796;9.934;2023-05-07T01:07:46;4.67;;;2.10;;
10110;SDS011;5095;49.796;9.934;2023-05-07T01:10:13;5.30;;;2.27;;
10110;SDS011;5095;49.796;9.934;2023-05-07T01:12:39;5.07;;;2.53;;
10110;SDS011;5095;49.796;9.934;2023-05-07T01:15:06;2.77;;;2.23;;
10110;SDS011;5095;49.796;9.934;2023-05-07T01:17:34;3.07;;;2.10;;
10110;SDS011;5095;49.796;9.934;2023-05-07T01:20:00;2.70;;;2.30;;
10110;SDS011;5095;49.796;9.934;2023-05-07T01:22:33;3.90;;;2.00;;
10110;SDS011;5095;49.796;9.934;2023-05-07T01:25:01;3.53;;;2.13;;
10110;SDS011;5095;49.796;9.934;2023-05-07T01:27:27;6.60;;;2.70;;
10110;SDS011;5095;49.796;9.934;2023-05-07T01:29:53;5.23;;;2.80;;
10110;SDS011;5095;49.796;9.934;2023-05-07T01:32:21;4.23;;;2.43;;
10110;SDS011;5095;49.796;9.934;2023-05-07T01:34:50;4.13;;;2.53;;
10110;SDS011;5095;49.796;9.934;2023-05-07T01:37:17;2.80;;;2.20;;
10110;SDS011;5095;49.796;9.934;2023-05-07T01:39:43;3.00;;;2.00;;
10110;SDS011;5095;49.796;9.934;2023-05-07T01:42:10;4.97;;;3.37;;
10110;SDS011;5095;49.796;9.934;2023-05-07T01:44:36;2.20;;;2.00;;
10110;SDS011;5095;49.796;9.934;2023-05-07T01:47:02;4.23;;;2.00;;
10110;SDS011;5095;49.796;9.934;2023-05-07T01:49:28;4.23;;;2.30;;
10110;SDS011;5095;49.796;9.934;2023-05-07T01:51:55;3.27;;;2.10;;
10110;SDS011;5095;49.796;9.934;2023-05-07T01:54:27;3.73;;;2.27;;
10110;SDS011;5095;49.796;9.934;2023-05-07T01:59:20;4.40;;;2.80;;
10110;SDS011;5095;49.796;9.934;2023-05-07T02:01:46;5.07;;;2.30;;
10110;SDS011;5095;49.796;9.934;2023-05-07T02:04:12;2.80;;;2.30;;
10110;SDS011;5095;49.796;9.934;2023-05-07T02:06:38;3.30;;;2.20;;
10110;SDS011;5095;49.796;9.934;2023-05-07T02:09:04;3.00;;;2.10;;
10110;SDS011;5095;49.796;9.934;2023-05-07T02:11:30;4.50;;;2.73;;
10110;SDS011;5095;49.796;9.934;2023-05-07T02:13:56;2.60;;;2.30;;
10110;SDS011;5095;49.796;9.934;2023-05-07T02:16:23;3.13;;;2.20;;
10110;SDS011;5095;49.796;9.934;2023-05-07T02:18:49;2.93;;;2.60;;
10110;SDS011;5095;49.796;9.934;2023-05-07T02:21:15;3.87;;;2.37;;
10110;SDS011;5095;49.796;9.934;2023-05-07T02:23:41;2.83;;;2.47;;
10110;SDS011;5095;49.796;9.934;2023-05-07T02:26:07;3.33;;;2.50;;
10110;SDS011;5095;49.796;9.934;2023-05-07T02:28:33;2.77;;;2.37;;
10110;SDS011;5095;49.796;9.934;2023-05-07T02:31:05;2.53;;;2.10;;
10110;SDS011;5095;49.796;9.934;2023-05-07T02:33:31;3.93;;;2.43;;
10110;SDS011;5095;49.796;9.934;2023-05-07T02:36:04;5.20;;;2.43;;
10110;SDS011;5095;49.796;9.934;2023-05-07T02:38:30;4.93;;;3.03;;
10110;SDS011;5095;49.796;9.934;2023-05-07T02:40:56;5.03;;;3.07;;
10110;SDS011;5095;49.796;9.934;2023-05-07T02:43:22;6.07;;;3.40;;
10110;SDS011;5095;49.796;9.934;2023-05-07T02:45:48;5.20;;;3.00;;
10110;SDS011;5095;49.796;9.934;2023-05-07T02:48:14;3.30;;;2.90;;
10110;SDS011;5095;49.796;9.934;2023-05-07T02:50:42;3.60;;;2.90;;
10110;SDS011;5095;49.796;9.934;2023-05-07T02:53:08;5.07;;;2.63;;
10110;SDS011;5095;49.796;9.934;2023-05-07T02:55:34;5.00;;;2.70;;
10110;SDS011;5095;49.796;9.934;2023-05-07T02:58:00;4.00;;;2.60;;
10110;SDS011;5095;49.796;9.934;2023-05-07T03:00:26;4.67;;;3.10;;
10110;SDS011;5095;49.796;9.934;2023-05-07T03:02:52;6.20;;;3.10;;
10110;SDS011;5095;49.796;9.934;2023-05-07T03:05:18;4.67;;;3.20;;
10110;SDS011;5095;49.796;9.934;2023-05-07T03:07:44;5.33;;;3.33;;
10110;SDS011;5095;49.796;9.934;2023-05-07T03:10:11;3.40;;;3.10;;
10110;SDS011;5095;49.796;9.934;2023-05-07T03:12:37;4.20;;;3.20;;
10110;SDS011;5095;49.796;9.934;2023-05-07T03:15:03;5.33;;;3.00;;
10110;SDS011;5095;49.796;9.934;2023-05-07T03:17:29;5.53;;;3.50;;
10110;SDS011;5095;49.796;9.934;2023-05-07T03:19:55;4.50;;;3.53;;
10110;SDS011;5095;49.796;9.934;2023-05-07T03:22:21;4.60;;;3.13;;
10110;SDS011;5095;49.796;9.934;2023-05-07T03:24:47;4.23;;;3.43;;
10110;SDS011;5095;49.796;9.934;2023-05-07T03:27:13;4.73;;;3.80;;
10110;SDS011;5095;49.796;9.934;2023-05-07T03:29:39;4.63;;;3.93;;
10110;SDS011;5095;49.796;9.934;2023-05-07T03:32:05;5.30;;;3.53;;
10110;SDS011;5095;49.796;9.934;2023-05-07T03:34:34;6.93;;;3.80;;
10110;SDS011;5095;49.796;9.934;2023-05-07T03:37:00;4.27;;;3.80;;
10110;SDS011;5095;49.796;9.934;2023-05-07T03:39:26;4.57;;;3.83;;
10110;SDS011;5095;49.796;9.934;2023-05-07T03:41:52;4.77;;;3.40;;
10110;SDS011;5095;49.796;9.934;2023-05-07T03:44:18;4.57;;;3.60;;
10110;SDS011;5095;49.796;9.934;2023-05-07T03:46:45;5.57;;;3.90;;
10110;SDS011;5095;49.796;9.934;2023-05-07T03:49:11;4.63;;;3.60;;
10110;SDS011;5095;49.796;9.934;2023-05-07T03:51:37;4.50;;;3.87;;
10110;SDS011;5095;49.796;9.934;2023-05-07T03:54:03;5.80;;;3.57;;
10110;SDS011;5095;49.796;9.934;2023-05-07T03:56:29;6.03;;;3.23;;
10110;SDS011;5095;49.796;9.934;2023-05-07T03:58:56;6.03;;;3.83;;
10110;SDS011;5095;49.796;9.934;2023-05-07T04:01:22;4.20;;;3.60;;
10110;SDS011;5095;49.796;9.934;2023-05-07T04:03:48;4.80;;;3.80;;
10110;SDS011;5095;49.796;9.934;2023-05-07T04:06:15;5.27;;;4.17;;
10110;SDS011;5095;49.796;9.934;2023-05-07T04:08:42;5.17;;;4.10;;
10110;SDS011;5095;49.796;9.934;2023-05-07T04:11:08;5.53;;;4.40;;
10110;SDS011;5095;49.796;9.934;2023-05-07T04:13:34;5.70;;;4.03;;
10110;SDS011;5095;49.796;9.934;2023-05-07T04:16:01;6.83;;;4.60;;
10110;SDS011;5095;49.796;9.934;2023-05-07T04:18:27;4.27;;;3.60;;
10110;SDS011;5095;49.796;9.934;2023-05-07T04:20:53;5.57;;;4.20;;
10110;SDS011;5095;49.796;9.934;2023-05-07T04:23:19;5.77;;;4.37;;
10110;SDS011;5095;49.796;9.934;2023-05-07T04:25:45;5.50;;;3.63;;
10110;SDS011;5095;49.796;9.934;2023-05-07T04:28:12;6.37;;;4.60;;
10110;SDS011;5095;49.796;9.934;2023-05-07T04:30:38;6.93;;;4.33;;
10110;SDS011;5095;49.796;9.934;2023-05-07T04:33:04;4.97;;;3.93;;
10110;SDS011;5095;49.796;9.934;2023-05-07T04:35:31;5.97;;;4.70;;
10110;SDS011;5095;49.796;9.934;2023-05-07T04:37:57;5.60;;;4.50;;
10110;SDS011;5095;49.796;9.934;2023-05-07T04:40:23;7.07;;;5.10;;
10110;SDS011;5095;49.796;9.934;2023-05-07T04:42:50;5.97;;;4.90;;
10110;SDS011;5095;49.796;9.934;2023-05-07T04:45:16;6.20;;;4.97;;
10110;SDS011;5095;49.796;9.934;2023-05-07T04:47:42;6.37;;;5.03;;
10110;SDS011;5095;49.796;9.934;2023-05-07T04:50:08;6.87;;;5.00;;
10110;SDS011;5095;49.796;9.934;2023-05-07T04:52:34;5.37;;;4.83;;
10110;SDS011;5095;49.796;9.934;2023-05-07T04:55:00;6.40;;;4.40;;
10110;SDS011;5095;49.796;9.934;2023-05-07T04:57:27;7.20;;;5.17;;
10110;SDS011;5095;49.796;9.934;2023-05-07T04:59:53;5.77;;;4.97;;
10110;SDS011;5095;49.796;9.934;2023-05-07T05:02:19;7.10;;;4.53;;
10110;SDS011;5095;49.796;9.934;2023-05-07T05:04:45;6.90;;;5.57;;
10110;SDS011;5095;49.796;9.934;2023-05-07T05:07:11;7.87;;;5.90;;
10110;SDS011;5095;49.796;9.934;2023-05-07T05:09:37;5.47;;;4.60;;
10110;SDS011;5095;49.796;9.934;2023-05-07T05:12:03;6.90;;;5.50;;
10110;SDS011;5095;49.796;9.934;2023-05-07T05:14:32;6.97;;;5.00;;
10110;SDS011;5095;49.796;9.934;2023-05-07T05:16:58;5.80;;;5.17;;
10110;SDS011;5095;49.796;9.934;2023-05-07T05:19:24;7.10;;;5.30;;
10110;SDS011;5095;49.796;9.934;2023-05-07T05:21:50;8.20;;;5.43;;
10110;SDS011;5095;49.796;9.934;2023-05-07T05:24:16;5.93;;;5.10;;
10110;SDS011;5095;49.796;9.934;2023-05-07T05:26:42;6.20;;;4.63;;
10110;SDS011;5095;49.796;9.934;2023-05-07T05:29:08;5.60;;;4.93;;
10110;SDS011;5095;49.796;9.934;2023-05-07T05:31:35;8.00;;;5.70;;
10110;SDS011;5095;49.796;9.934;2023-05-07T05:34:01;7.57;;;5.83;;
10110;SDS011;5095;49.796;9.934;2023-05-07T05:36:28;6.60;;;4.90;;
10110;SDS011;5095;49.796;9.934;2023-05-07T05:38:55;5.50;;;4.90;;
10110;SDS011;5095;49.796;9.934;2023-05-07T05:41:21;8.10;;;5.23;;
10110;SDS011;5095;49.796;9.934;2023-05-07T05:43:48;6.23;;;5.27;;
10110;SDS011;5095;49.796;9.934;2023-05-07T05:46:14;6.47;;;5.13;;
10110;SDS011;5095;49.796;9.934;2023-05-07T05:48:40;8.90;;;5.53;;
10110;SDS011;5095;49.796;9.934;2023-05-07T05:51:06;5.73;;;4.80;;
10110;SDS011;5095;49.796;9.934;2023-05-07T05:53:32;5.70;;;4.00;;
10110;SDS011;5095;49.796;9.934;2023-05-07T05:55:58;7.53;;;5.00;;
10110;SDS011;5095;49.796;9.934;2023-05-07T05:58:24;4.90;;;3.70;;
10110;SDS011;5095;49.796;9.934;2023-05-07T06:00:50;4.20;;;3.73;;
10110;SDS011;5095;49.796;9.934;2023-05-07T06:03:18;6.60;;;5.00;;
10110;SDS011;5095;49.796;9.934;2023-05-07T06:05:44;7.93;;;5.43;;
10110;SDS011;5095;49.796;9.934;2023-05-07T06:08:10;8.80;;;5.50;;
10110;SDS011;5095;49.796;9.934;2023-05-07T06:10:36;10.07;;;5.53;;
10110;SDS011;5095;49.796;9.934;2023-05-07T06:13:02;7.17;;;5.83;;
10110;SDS011;5095;49.796;9.934;2023-05-07T06:15:28;6.83;;;5.10;;
10110;SDS011;5095;49.796;9.934;2023-05-07T06:17:54;7.37;;;5.60;;
10110;SDS011;5095;49.796;9.934;2023-05-07T06:20:22;7.27;;;5.70;;
10110;SDS011;5095;49.796;9.934;2023-05-07T06:22:48;9.37;;;5.30;;
10110;SDS011;5095;49.796;9.934;2023-05-07T06:25:14;5.70;;;4.23;;
10110;SDS011;5095;49.796;9.934;2023-05-07T06:27:40;6.60;;;5.87;;
10110;SDS011;5095;49.796;9.934;2023-05-07T06:30:06;6.77;;;5.50;;
10110;SDS011;5095;49.796;9.934;2023-05-07T06:32:32;7.00;;;5.67;;
10110;SDS011;5095;49.796;9.934;2023-05-07T06:34:58;6.90;;;5.70;;
10110;SDS011;5095;49.796;9.934;2023-05-07T06:37:25;7.03;;;5.13;;
10110;SDS011;5095;49.796;9.934;2023-05-07T06:39:51;7.67;;;5.83;;
10110;SDS011;5095;49.796;9.934;2023-05-07T06:42:17;6.50;;;5.50;;
10110;SDS011;5095;49.796;9.934;2023-05-07T06:44:43;5.23;;;4.57;;
10110;SDS011;5095;49.796;9.934;2023-05-07T06:47:09;7.90;;;5.23;;
10110;SDS011;5095;49.796;9.934;2023-05-07T06:49:35;4.70;;;3.70;;
10110;SDS011;5095;49.796;9.934;2023-05-07T06:52:01;5.97;;;4.90;;
10110;SDS011;5095;49.796;9.934;2023-05-07T06:54:27;5.73;;;4.37;;
10110;SDS011;5095;49.796;9.934;2023-05-07T06:56:53;7.33;;;5.90;;
10110;SDS011;5095;49.796;9.934;2023-05-07T06:59:19;8.83;;;4.30;;
10110;SDS011;5095;49.796;9.934;2023-05-07T07:01:45;7.60;;;6.00;;
10110;SDS011;5095;49.796;9.934;2023-05-07T07:04:11;7.93;;;5.53;;
10110;SDS011;5095;49.796;9.934;2023-05-07T07:06:37;7.60;;;5.60;;
10110;SDS011;5095;49.796;9.934;2023-05-07T07:09:03;5.73;;;4.60;;
10110;SDS011;5095;49.796;9.934;2023-05-07T07:11:30;7.90;;;6.17;;
10110;SDS011;5095;49.796;9.934;2023-05-07T07:13:55;7.20;;;5.63;;
10110;SDS011;5095;49.796;9.934;2023-05-07T07:16:21;9.73;;;6.27;;
10110;SDS011;5095;49.796;9.934;2023-05-07T07:18:47;6.37;;;5.63;;
10110;SDS011;5095;49.796;9.934;2023-05-07T07:21:13;7.47;;;5.50;;
10110;SDS011;5095;49.796;9.934;2023-05-07T07:23:39;7.17;;;5.23;;
10110;SDS011;5095;49.796;9.934;2023-05-07T07:26:05;6.20;;;4.90;;
10110;SDS011;5095;49.796;9.934;2023-05-07T07:28:31;4.23;;;3.40;;
10110;SDS011;5095;49.796;9.934;2023-05-07T07:30:57;7.63;;;5.27;;
10110;SDS011;5095;49.796;9.934;2023-05-07T07:33:23;7.73;;;5.73;;
10110;SDS011;5095;49.796;9.934;2023-05-07T07:35:49;7.87;;;5.80;;
10110;SDS011;5095;49.796;9.934;2023-05-07T07:38:15;7.03;;;5.43;;
10110;SDS011;5095;49.796;9.934;2023-05-07T07:40:41;5.03;;;4.00;;
10110;SDS011;5095;49.796;9.934;2023-05-07T07:43:08;8.70;;;5.97;;
10110;SDS011;5095;49.796;9.934;2023-05-07T07:45:34;6.27;;;5.20;;
10110;SDS011;5095;49.796;9.934;2023-05-07T07:48:00;9.07;;;5.47;;
10110;SDS011;5095;49.796;9.934;2023-05-07T07:50:26;7.43;;;5.30;;
10110;SDS011;5095;49.796;9.934;2023-05-07T07:52:52;6.37;;;5.27;;
10110;SDS011;5095;49.796;9.934;2023-05-07T07:55:19;6.57;;;5.10;;
10110;SDS011;5095;49.796;9.934;2023-05-07T07:57:48;5.93;;;5.00;;
10110;SDS011;5095;49.796;9.934;2023-05-07T08:00:14;8.13;;;5.37;;
10110;SDS011;5095;49.796;9.934;2023-05-07T08:02:40;11.60;;;5.40;;
10110;SDS011;5095;49.796;9.934;2023-05-07T08:05:06;5.83;;;5.07;;
10110;SDS011;5095;49.796;9.934;2023-05-07T08:07:32;5.90;;;5.03;;
10110;SDS011;5095;49.796;9.934;2023-05-07T08:09:58;7.33;;;5.10;;
10110;SDS011;5095;49.796;9.934;2023-05-07T08:12:24;9.93;;;4.30;;
10110;SDS011;5095;49.796;9.934;2023-05-07T08:14:50;5.17;;;4.20;;
10110;SDS011;5095;49.796;9.934;2023-05-07T08:17:16;9.73;;;5.33;;
10110;SDS011;5095;49.796;9.934;2023-05-07T08:19:42;7.83;;;5.07;;
10110;SDS011;5095;49.796;9.934;2023-05-07T08:22:09;5.80;;;5.20;;
10110;SDS011;5095;49.796;9.934;2023-05-07T08:24:36;6.13;;;4.87;;
10110;SDS011;5095;49.796;9.934;2023-05-07T08:27:02;6.40;;;5.37;;
10110;SDS011;5095;49.796;9.934;2023-05-07T08:29:27;6.27;;;4.77;;
10110;SDS011;5095;49.796;9.934;2023-05-07T08:31:53;7.53;;;4.40;;
10110;SDS011;5095;49.796;9.934;2023-05-07T08:34:21;5.97;;;5.20;;
10110;SDS011;5095;49.796;9.934;2023-05-07T08:36:47;5.93;;;4.83;;
10110;SDS011;5095;49.796;9.934;2023-05-07T08:39:13;6.17;;;4.33;;
10110;SDS011;5095;49.796;9.934;2023-05-07T08:41:39;6.73;;;4.60;;
10110;SDS011;5095;49.796;9.934;2023-05-07T08:44:06;4.03;;;3.63;;
10110;SDS011;5095;49.796;9.934;2023-05-07T08:46:32;6.30;;;3.93;;
10110;SDS011;5095;49.796;9.934;2023-05-07T08:48:58;11.10;;;4.90;;
10110;SDS011;5095;49.796;9.934;2023-05-07T08:51:24;5.67;;;5.03;;
10110;SDS011;5095;49.796;9.934;2023-05-07T08:53:50;5.37;;;4.00;;
10110;SDS011;5095;49.796;9.934;2023-05-07T08:56:16;3.37;;;2.80;;
10110;SDS011;5095;49.796;9.934;2023-05-07T08:58:45;3.93;;;2.93;;
10110;SDS011;5095;49.796;9.934;2023-05-07T09:01:14;4.10;;;2.97;;
10110;SDS011;5095;49.796;9.934;2023-05-07T09:03:41;6.37;;;5.33;;
10110;SDS011;5095;49.796;9.934;2023-05-07T09:06:10;6.30;;;4.87;;
10110;SDS011;5095;49.796;9.934;2023-05-07T09:08:36;3.60;;;3.00;;
10110;SDS011;5095;49.796;9.934;2023-05-07T09:11:02;6.80;;;4.77;;
10110;SDS011;5095;49.796;9.934;2023-05-07T09:13:28;5.97;;;4.80;;
10110;SDS011;5095;49.796;9.934;2023-05-07T09:15:54;4.97;;;3.40;;
10110;SDS011;5095;49.796;9.934;2023-05-07T09:18:21;5.77;;;4.20;;
10110;SDS011;5095;49.796;9.934;2023-05-07T09:20:47;5.90;;;4.60;;
10110;SDS011;5095;49.796;9.934;2023-05-07T09:23:13;5.83;;;3.20;;
10110;SDS011;5095;49.796;9.934;2023-05-07T09:25:40;5.00;;;3.87;;
10110;SDS011;5095;49.796;9.934;2023-05-07T09:28:06;6.73;;;4.37;;
10110;SDS011;5095;49.796;9.934;2023-05-07T09:30:32;5.23;;;3.63;;
10110;SDS011;5095;49.796;9.934;2023-05-07T09:32:59;5.23;;;4.20;;
10110;SDS011;5095;49.796;9.934;2023-05-07T09:35:25;3.73;;;2.80;;
10110;SDS011;5095;49.796;9.934;2023-05-07T09:37:58;9.13;;;4.87;;
10110;SDS011;5095;49.796;9.934;2023-05-07T09:40:28;8.70;;;5.33;;
10110;SDS011;5095;49.796;9.934;2023-05-07T09:42:54;6.23;;;4.90;;
10110;SDS011;5095;49.796;9.934;2023-05-07T09:45:26;7.83;;;5.13;;
10110;SDS011;5095;49.796;9.934;2023-05-07T09:47:56;9.27;;;5.13;;
10110;SDS011;5095;49.796;9.934;2023-05-07T09:50:26;7.40;;;4.23;;
10110;SDS011;5095;49.796;9.934;2023-05-07T09:52:52;6.33;;;4.80;;
10110;SDS011;5095;49.796;9.934;2023-05-07T09:55:20;5.30;;;4.10;;
10110;SDS011;5095;49.796;9.934;2023-05-07T09:57:46;3.73;;;3.03;;
10110;SDS011;5095;49.796;9.934;2023-05-07T10:00:13;6.27;;;5.00;;
10110;SDS011;5095;49.796;9.934;2023-05-07T10:02:40;6.23;;;4.17;;
10110;SDS011;5095;49.796;9.934;2023-05-07T10:05:12;3.87;;;3.30;;
10110;SDS011;5095;49.796;9.934;2023-05-07T10:07:38;2.40;;;2.20;;
10110;SDS011;5095;49.796;9.934;2023-05-07T10:10:04;9.17;;;4.60;;
10110;SDS011;5095;49.796;9.934;2023-05-07T10:12:30;4.10;;;2.77;;
10110;SDS011;5095;49.796;9.934;2023-05-07T10:15:02;6.97;;;5.03;;
10110;SDS011;5095;49.796;9.934;2023-05-07T10:17:29;3.93;;;2.80;;
10110;SDS011;5095;49.796;9.934;2023-05-07T10:19:55;2.77;;;2.50;;
10110;SDS011;5095;49.796;9.934;2023-05-07T10:22:21;8.67;;;4.73;;
10110;SDS011;5095;49.796;9.934;2023-05-07T10:24:47;5.70;;;4.43;;
10110;SDS011;5095;49.796;9.934;2023-05-07T10:27:14;3.37;;;2.87;;
10110;SDS011;5095;49.796;9.934;2023-05-07T10:34:40;2.80;;;2.50;;
10110;SDS011;5095;49.796;9.934;2023-05-07T10:37:07;5.00;;;3.77;;
10110;SDS011;5095;49.796;9.934;2023-05-07T10:39:34;6.03;;;4.10;;
10110;SDS011;5095;49.796;9.934;2023-05-07T10:42:10;4.77;;;3.33;;
10110;SDS011;5095;49.796;9.934;2023-05-07T10:44:36;4.40;;;3.20;;
10110;SDS011;5095;49.796;9.934;2023-05-07T10:47:09;3.43;;;2.70;;
10110;SDS011;5095;49.796;9.934;2023-05-07T10:50:21;3.27;;;2.53;;
10110;SDS011;5095;49.796;9.934;2023-05-07T10:52:22;3.60;;;2.97;;
10110;SDS011;5095;49.796;9.934;2023-05-07T10:55:18;2.87;;;2.60;;
10110;SDS011;5095;49.796;9.934;2023-05-07T10:57:35;3.07;;;2.50;;
10110;SDS011;5095;49.796;9.934;2023-05-07T11:00:02;3.70;;;2.70;;
10110;SDS011;5095;49.796;9.934;2023-05-07T11:07:53;3.53;;;2.70;;
10110;SDS011;5095;49.796;9.934;2023-05-07T11:10:20;3.40;;;2.87;;
10110;SDS011;5095;49.796;9.934;2023-05-07T11:12:47;2.77;;;2.37;;
10110;SDS011;5095;49.796;9.934;2023-05-07T11:15:13;4.80;;;3.50;;
10110;SDS011;5095;49.796;9.934;2023-05-07T11:17:53;2.50;;;2.27;;
10110;SDS011;5095;49.796;9.934;2023-05-07T11:20:19;3.80;;;2.97;;
10110;SDS011;5095;49.796;9.934;2023-05-07T11:22:46;2.77;;;2.30;;
10110;SDS011;5095;49.796;9.934;2023-05-07T11:25:17;3.60;;;3.00;;
10110;SDS011;5095;49.796;9.934;2023-05-07T11:27:44;3.50;;;2.90;;
10110;SDS011;5095;49.796;9.934;2023-05-07T11:30:10;3.17;;;2.87;;
10110;SDS011;5095;49.796;9.934;2023-05-07T11:32:43;5.13;;;2.60;;
10110;SDS011;5095;49.796;9.934;2023-05-07T11:35:09;3.67;;;2.53;;
10110;SDS011;5095;49.796;9.934;2023-05-07T11:37:35;2.80;;;2.60;;
10110;SDS011;5095;49.796;9.934;2023-05-07T11:40:04;6.90;;;3.80;;
10110;SDS011;5095;49.796;9.934;2023-05-07T11:42:33;2.83;;;2.53;;
10110;SDS011;5095;49.796;9.934;2023-05-07T11:45:00;3.70;;;2.73;;
10110;SDS011;5095;49.796;9.934;2023-05-07T11:47:26;2.77;;;2.50;;
10110;SDS011;5095;49.796;9.934;2023-05-07T11:49:55;5.03;;;2.77;;
10110;SDS011;5095;49.796;9.934;2023-05-07T11:52:22;3.43;;;2.73;;
10110;SDS011;5095;49.796;9.934;2023-05-07T11:54:58;4.13;;;2.80;;
10110;SDS011;5095;49.796;9.934;2023-05-07T11:57:28;3.80;;;3.33;;
10110;SDS011;5095;49.796;9.934;2023-05-07T11:59:57;5.07;;;3.70;;
10110;SDS011;5095;49.796;9.934;2023-05-07T12:02:24;3.33;;;2.70;;
10110;SDS011;5095;49.796;9.934;2023-05-07T12:04:51;2.40;;;2.20;;
10110;SDS011;5095;49.796;9.934;2023-05-07T12:07:17;3.10;;;2.70;;
10110;SDS011;5095;49.796;9.934;2023-05-07T12:09:44;4.30;;;2.87;;
10110;SDS011;5095;49.796;9.934;2023-05-07T12:12:10;3.27;;;2.70;;
10110;SDS011;5095;49.796;9.934;2023-05-07T12:14:40;3.17;;;2.70;;
10110;SDS011;5095;49.796;9.934;2023-05-07T12:17:09;4.37;;;2.77;;
10110;SDS011;5095;49.796;9.934;2023-05-07T12:19:36;2.80;;;2.60;;
10110;SDS011;5095;49.796;9.934;2023-05-07T12:22:02;3.37;;;2.30;;
10110;SDS011;5095;49.796;9.934;2023-05-07T12:24:29;4.13;;;3.37;;
10110;SDS011;5095;49.796;9.934;2023-05-07T12:26:55;3.10;;;2.67;;
10110;SDS011;5095;49.796;9.934;2023-05-07T12:29:21;5.40;;;2.83;;
10110;SDS011;5095;49.796;9.934;2023-05-07T12:31:50;2.57;;;2.30;;
10110;SDS011;5095;49.796;9.934;2023-05-07T12:34:16;3.47;;;2.60;;
10110;SDS011;5095;49.796;9.934;2023-05-07T12:36:42;2.77;;;2.50;;
10110;SDS011;5095;49.796;9.934;2023-05-07T12:39:08;3.00;;;2.70;;
10110;SDS011;5095;49.796;9.934;2023-05-07T12:44:21;2.80;;;2.47;;
10110;SDS011;5095;49.796;9.934;2023-05-07T12:46:48;2.53;;;2.33;;
10110;SDS011;5095;49.796;9.934;2023-05-07T12:49:14;3.40;;;2.73;;
10110;SDS011;5095;49.796;9.934;2023-05-07T12:51:40;2.73;;;2.50;;
10110;SDS011;5095;49.796;9.934;2023-05-07T12:54:06;2.63;;;2.43;;
10110;SDS011;5095;49.796;9.934;2023-05-07T12:56:35;2.73;;;2.30;;
10110;SDS011;5095;49.796;9.934;2023-05-07T12:59:01;2.93;;;2.50;;
10110;SDS011;5095;49.796;9.934;2023-05-07T13:01:28;3.37;;;2.60;;
10110;SDS011;5095;49.796;9.934;2023-05-07T13:03:55;2.80;;;2.50;;
10110;SDS011;5095;49.796;9.934;2023-05-07T13:06:21;2.77;;;2.43;;
10110;SDS011;5095;49.796;9.934;2023-05-07T13:08:47;3.00;;;2.40;;
10110;SDS011;5095;49.796;9.934;2023-05-07T13:11:13;2.97;;;2.47;;
10110;SDS011;5095;49.796;9.934;2023-05-07T13:13:41;3.13;;;2.30;;
10110;SDS011;5095;49.796;9.934;2023-05-07T13:16:08;3.07;;;2.60;;
10110;SDS011;5095;49.796;9.934;2023-05-07T13:18:34;3.80;;;2.40;;
10110;SDS011;5095;49.796;9.934;2023-05-07T13:21:00;2.40;;;2.20;;
10110;SDS011;5095;49.796;9.934;2023-05-07T13:23:27;2.77;;;2.50;;
10110;SDS011;5095;49.796;9.934;2023-05-07T13:25:53;2.73;;;2.30;;
10110;SDS011;5095;49.796;9.934;2023-05-07T13:28:19;2.73;;;2.30;;
10110;SDS011;5095;49.796;9.934;2023-05-07T13:30:46;4.17;;;2.77;;
10110;SDS011;5095;49.796;9.934;2023-05-07T13:33:12;5.30;;;2.60;;
10110;SDS011;5095;49.796;9.934;2023-05-07T13:35:38;3.27;;;1.90;;
10110;SDS011;5095;49.796;9.934;2023-05-07T13:38:04;3.60;;;2.17;;
10110;SDS011;5095;49.796;9.934;2023-05-07T13:40:31;3.37;;;2.00;;
10110;SDS011;5095;49.796;9.934;2023-05-07T13:42:57;4.17;;;2.20;;
10110;SDS011;5095;49.796;9.934;2023-05-07T13:45:24;2.07;;;1.90;;
10110;SDS011;5095;49.796;9.934;2023-05-07T13:47:54;2.80;;;2.20;;
10110;SDS011;5095;49.796;9.934;2023-05-07T13:50:20;2.45;;;1.90;;
10110;SDS011;5095;49.796;9.934;2023-05-07T13:52:46;3.33;;;2.00;;
10110;SDS011;5095;49.796;9.934;2023-05-07T13:55:18;2.67;;;2.20;;
10110;SDS011;5095;49.796;9.934;2023-05-07T13:57:44;2.63;;;2.00;;
10110;SDS011;5095;49.796;9.934;2023-05-07T14:00:10;2.92;;;2.22;;
10110;SDS011;5095;49.796;9.934;2023-05-07T14:02:37;3.20;;;2.10;;
10110;SDS011;5095;49.796;9.934;2023-05-07T14:05:03;3.10;;;2.30;;
10110;SDS011;5095;49.796;9.934;2023-05-07T14:07:29;2.73;;;2.23;;
10110;SDS011;5095;49.796;9.934;2023-05-07T14:09:55;2.70;;;2.23;;
10110;SDS011;5095;49.796;9.934;2023-05-07T14:12:21;2.70;;;2.00;;
10110;SDS011;5095;49.796;9.934;2023-05-07T14:14:47;2.03;;;1.83;;
10110;SDS011;5095;49.796;9.934;2023-05-07T14:17:14;4.13;;;2.20;;
10110;SDS011;5095;49.796;9.934;2023-05-07T14:19:41;3.30;;;2.20;;
10110;SDS011;5095;49.796;9.934;2023-05-07T14:22:07;2.43;;;2.10;;
10110;SDS011;5095;49.796;9.934;2023-05-07T14:24:33;3.80;;;2.00;;
10110;SDS011;5095;49.796;9.934;2023-05-07T14:26:59;2.43;;;1.90;;
10110;SDS011;5095;49.796;9.934;2023-05-07T14:29:25;2.70;;;1.77;;
10110;SDS011;5095;49.796;9.934;2023-05-07T14:31:51;2.28;;;1.77;;
10110;SDS011;5095;49.796;9.934;2023-05-07T14:34:17;2.13;;;1.83;;
10110;SDS011;5095;49.796;9.934;2023-05-07T14:36:43;2.03;;;1.85;;
10110;SDS011;5095;49.796;9.934;2023-05-07T14:39:09;2.17;;;1.98;;
10110;SDS011;5095;49.796;9.934;2023-05-07T14:41:35;3.47;;;2.28;;
10110;SDS011;5095;49.796;9.934;2023-05-07T14:44:01;2.28;;;1.85;;
10110;SDS011;5095;49.796;9.934;2023-05-07T14:46:29;2.70;;;1.90;;
10110;SDS011;5095;49.796;9.934;2023-05-07T14:48:56;4.75;;;2.22;;
10110;SDS011;5095;49.796;9.934;2023-05-07T14:51:22;3.95;;;2.30;;
10110;SDS011;5095;49.796;9.934;2023-05-07T14:53:49;2.10;;;1.92;;
10110;SDS011;5095;49.796;9.934;2023-05-07T14:56:16;2.67;;;2.20;;
10110;SDS011;5095;49.796;9.934;2023-05-07T14:58:42;3.75;;;2.13;;
10110;SDS011;5095;49.796;9.934;2023-05-07T15:01:09;3.47;;;2.25;;
10110;SDS011;5095;49.796;9.934;2023-05-07T15:03:35;2.88;;;2.38;;
10110;SDS011;5095;49.796;9.934;2023-05-07T15:06:01;2.30;;;2.10;;
10110;SDS011;5095;49.796;9.934;2023-05-07T15:08:28;2.55;;;2.17;;
10110;SDS011;5095;49.796;9.934;2023-05-07T15:10:54;2.85;;;2.03;;
10110;SDS011;5095;49.796;9.934;2023-05-07T15:13:20;2.50;;;1.95;;